sensor_id;sensor_type;location;lat;lon;timestamp;temperature;humidity
63277;DHT22;49403;51.046;13.780;2022-08-21T00:00:19;23.00;94.80
63277;DHT22;49403;51.046;13.780;2022-08-21T00:00:51;23.50;95.20
63277;DHT22;49403;51.046;13.780;2022-08-21T00:01:25;22.90;95.10
63277;DHT22;49403;51.046;13.780;2022-08-21T00:01:56;22.90;95.20
63277;DHT22;49403;51.046;13.780;2022-08-21T00:02:28;22.60;95.20
63277;DHT22;49403;51.046;13.780;2022-08-21T00:03:03;24.10;95.90
63277;DHT22;49403;51.046;13.780;2022-08-21T00:03:34;22.60;95.40
63277;DHT22;49403;51.046;13.780;2022-08-21T00:04:06;22.60;95.70
63277;DHT22;49403;51.046;13.780;2022-08-21T00:04:37;22.50;95.80
63277;DHT22;49403;51.046;13.780;2022-08-21T00:05:08;22.50;96.00
63277;DHT22;49403;51.046;13.780;2022-08-21T00:05:44;22.40;96.20
63277;DHT22;49403;51.046;13.780;2022-08-21T00:06:15;22.40;96.30
63277;DHT22;49403;51.046;13.780;2022-08-21T00:06:46;21.90;96.50
63277;DHT22;49403;51.046;13.780;2022-08-21T00:07:18;22.80;97.10
63277;DHT22;49403;51.046;13.780;2022-08-21T00:07:50;22.40;97.10
63277;DHT22;49403;51.046;13.780;2022-08-21T00:08:21;22.40;97.20
63277;DHT22;49403;51.046;13.780;2022-08-21T00:08:52;22.40;97.40
63277;DHT22;49403;51.046;13.780;2022-08-21T00:09:23;22.40;97.60
63277;DHT22;49403;51.046;13.780;2022-08-21T00:09:54;22.40;97.60
63277;DHT22;49403;51.046;13.780;2022-08-21T00:10:25;22.40;97.80
63277;DHT22;49403;51.046;13.780;2022-08-21T00:10:56;22.50;97.90
63277;DHT22;49403;51.046;13.780;2022-08-21T00:11:27;23.30;98.40
63277;DHT22;49403;51.046;13.780;2022-08-21T00:11:58;22.50;98.10
63277;DHT22;49403;51.046;13.780;2022-08-21T00:12:29;22.60;98.20
63277;DHT22;49403;51.046;13.780;2022-08-21T00:13:03;23.40;98.50
63277;DHT22;49403;51.046;13.780;2022-08-21T00:13:35;22.60;98.20
63277;DHT22;49403;51.046;13.780;2022-08-21T00:14:08;21.80;97.90
63277;DHT22;49403;51.046;13.780;2022-08-21T00:14:39;22.60;98.20
63277;DHT22;49403;51.046;13.780;2022-08-21T00:15:12;23.60;98.80
63277;DHT22;49403;51.046;13.780;2022-08-21T00:15:45;22.60;98.10
63277;DHT22;49403;51.046;13.780;2022-08-21T00:16:16;22.60;98.00
63277;DHT22;49403;51.046;13.780;2022-08-21T00:16:47;21.90;97.60
63277;DHT22;49403;51.046;13.780;2022-08-21T00:17:17;23.30;98.20
63277;DHT22;49403;51.046;13.780;2022-08-21T00:17:48;22.70;97.80
63277;DHT22;49403;51.046;13.780;2022-08-21T00:18:19;22.60;97.70
63277;DHT22;49403;51.046;13.780;2022-08-21T00:18:50;22.70;97.70
63277;DHT22;49403;51.046;13.780;2022-08-21T00:19:21;22.60;97.70
63277;DHT22;49403;51.046;13.780;2022-08-21T00:19:55;22.60;97.70
63277;DHT22;49403;51.046;13.780;2022-08-21T00:20:26;21.80;97.50
63277;DHT22;49403;51.046;13.780;2022-08-21T00:20:57;22.60;97.80
63277;DHT22;49403;51.046;13.780;2022-08-21T00:21:28;23.90;98.50
63277;DHT22;49403;51.046;13.780;2022-08-21T00:21:59;22.70;98.00
63277;DHT22;49403;51.046;13.780;2022-08-21T00:22:30;22.40;97.80
63277;DHT22;49403;51.046;13.780;2022-08-21T00:23:01;22.70;98.00
63277;DHT22;49403;51.046;13.780;2022-08-21T00:23:34;22.70;97.90
63277;DHT22;49403;51.046;13.780;2022-08-21T00:24:05;21.50;97.40
63277;DHT22;49403;51.046;13.780;2022-08-21T00:24:36;22.70;98.00
63277;DHT22;49403;51.046;13.780;2022-08-21T00:25:08;22.70;98.00
63277;DHT22;49403;51.046;13.780;2022-08-21T00:25:42;23.30;98.10
63277;DHT22;49403;51.046;13.780;2022-08-21T00:26:13;24.10;98.40
63277;DHT22;49403;51.046;13.780;2022-08-21T00:26:44;22.70;97.80
63277;DHT22;49403;51.046;13.780;2022-08-21T00:27:14;22.80;97.90
63277;DHT22;49403;51.046;13.780;2022-08-21T00:27:46;22.80;97.90
63277;DHT22;49403;51.046;13.780;2022-08-21T00:28:19;22.70;97.80
63277;DHT22;49403;51.046;13.780;2022-08-21T00:28:50;22.80;97.90
63277;DHT22;49403;51.046;13.780;2022-08-21T00:29:21;22.80;97.90
63277;DHT22;49403;51.046;13.780;2022-08-21T00:29:52;22.80;97.90
63277;DHT22;49403;51.046;13.780;2022-08-21T00:30:25;22.80;97.90
63277;DHT22;49403;51.046;13.780;2022-08-21T00:30:57;24.20;98.40
63277;DHT22;49403;51.046;13.780;2022-08-21T00:31:28;22.70;97.80
63277;DHT22;49403;51.046;13.780;2022-08-21T00:31:58;22.80;97.80
63277;DHT22;49403;51.046;13.780;2022-08-21T00:32:29;24.20;98.40
63277;DHT22;49403;51.046;13.780;2022-08-21T00:33:01;22.80;97.80
63277;DHT22;49403;51.046;13.780;2022-08-21T00:33:33;22.70;97.70
63277;DHT22;49403;51.046;13.780;2022-08-21T00:34:04;24.10;98.50
63277;DHT22;49403;51.046;13.780;2022-08-21T00:34:35;22.90;97.90
63277;DHT22;49403;51.046;13.780;2022-08-21T00:35:13;22.90;97.90
63277;DHT22;49403;51.046;13.780;2022-08-21T00:35:44;22.80;97.70
63277;DHT22;49403;51.046;13.780;2022-08-21T00:36:15;22.90;97.90
63277;DHT22;49403;51.046;13.780;2022-08-21T00:36:46;22.80;97.80
63277;DHT22;49403;51.046;13.780;2022-08-21T00:37:18;22.90;98.00
63277;DHT22;49403;51.046;13.780;2022-08-21T00:37:49;22.90;97.80
63277;DHT22;49403;51.046;13.780;2022-08-21T00:38:20;22.90;98.00
63277;DHT22;49403;51.046;13.780;2022-08-21T00:38:51;22.90;98.00
63277;DHT22;49403;51.046;13.780;2022-08-21T00:39:21;23.80;98.40
63277;DHT22;49403;51.046;13.780;2022-08-21T00:39:52;23.00;98.10
63277;DHT22;49403;51.046;13.780;2022-08-21T00:40:29;23.20;98.20
63277;DHT22;49403;51.046;13.780;2022-08-21T00:41:02;23.00;97.90
63277;DHT22;49403;51.046;13.780;2022-08-21T00:41:36;21.60;97.20
63277;DHT22;49403;51.046;13.780;2022-08-21T00:42:07;23.60;98.10
63277;DHT22;49403;51.046;13.780;2022-08-21T00:42:38;22.90;97.90
63277;DHT22;49403;51.046;13.780;2022-08-21T00:43:11;22.90;97.80
63277;DHT22;49403;51.046;13.780;2022-08-21T00:43:42;23.90;98.30
63277;DHT22;49403;51.046;13.780;2022-08-21T00:44:14;23.00;98.00
63277;DHT22;49403;51.046;13.780;2022-08-21T00:44:47;23.00;97.90
63277;DHT22;49403;51.046;13.780;2022-08-21T00:45:19;22.90;97.80
63277;DHT22;49403;51.046;13.780;2022-08-21T00:45:50;23.00;97.90
63277;DHT22;49403;51.046;13.780;2022-08-21T00:46:22;23.10;97.90
63277;DHT22;49403;51.046;13.780;2022-08-21T00:46:53;23.50;98.00
63277;DHT22;49403;51.046;13.780;2022-08-21T00:47:24;22.00;97.40
63277;DHT22;49403;51.046;13.780;2022-08-21T00:47:55;23.00;97.70
63277;DHT22;49403;51.046;13.780;2022-08-21T00:48:26;24.10;98.20
63277;DHT22;49403;51.046;13.780;2022-08-21T00:48:57;23.10;97.80
63277;DHT22;49403;51.046;13.780;2022-08-21T00:49:28;23.10;97.70
63277;DHT22;49403;51.046;13.780;2022-08-21T00:49:59;23.10;97.70
63277;DHT22;49403;51.046;13.780;2022-08-21T00:50:33;23.00;97.70
63277;DHT22;49403;51.046;13.780;2022-08-21T00:51:08;23.10;97.60
63277;DHT22;49403;51.046;13.780;2022-08-21T00:51:55;23.10;97.60
63277;DHT22;49403;51.046;13.780;2022-08-21T00:52:30;23.10;97.60
63277;DHT22;49403;51.046;13.780;2022-08-21T00:53:03;23.00;97.60
63277;DHT22;49403;51.046;13.780;2022-08-21T00:53:38;23.00;97.70
63277;DHT22;49403;51.046;13.780;2022-08-21T00:54:10;24.30;98.30
63277;DHT22;49403;51.046;13.780;2022-08-21T00:54:42;23.50;97.90
63277;DHT22;49403;51.046;13.780;2022-08-21T00:55:13;23.00;97.60
63277;DHT22;49403;51.046;13.780;2022-08-21T00:55:45;23.10;97.70
63277;DHT22;49403;51.046;13.780;2022-08-21T00:56:17;23.10;97.70
63277;DHT22;49403;51.046;13.780;2022-08-21T00:56:51;22.30;97.40
63277;DHT22;49403;51.046;13.780;2022-08-21T00:57:27;23.10;97.60
63277;DHT22;49403;51.046;13.780;2022-08-21T00:58:00;23.10;97.60
63277;DHT22;49403;51.046;13.780;2022-08-21T00:58:31;23.10;97.60
63277;DHT22;49403;51.046;13.780;2022-08-21T00:59:02;23.10;97.70
63277;DHT22;49403;51.046;13.780;2022-08-21T00:59:37;22.90;97.50
63277;DHT22;49403;51.046;13.780;2022-08-21T01:00:12;24.40;98.10
63277;DHT22;49403;51.046;13.780;2022-08-21T01:00:45;23.10;97.50
63277;DHT22;49403;51.046;13.780;2022-08-21T01:01:17;23.10;97.50
63277;DHT22;49403;51.046;13.780;2022-08-21T01:01:49;23.10;97.60
63277;DHT22;49403;51.046;13.780;2022-08-21T01:02:20;24.30;98.00
63277;DHT22;49403;51.046;13.780;2022-08-21T01:02:51;23.20;97.50
63277;DHT22;49403;51.046;13.780;2022-08-21T01:03:23;23.20;97.50
63277;DHT22;49403;51.046;13.780;2022-08-21T01:03:55;23.20;97.30
63277;DHT22;49403;51.046;13.780;2022-08-21T01:04:26;23.20;97.20
63277;DHT22;49403;51.046;13.780;2022-08-21T01:04:57;23.20;97.20
63277;DHT22;49403;51.046;13.780;2022-08-21T01:05:28;22.60;96.90
63277;DHT22;49403;51.046;13.780;2022-08-21T01:05:59;22.10;96.50
63277;DHT22;49403;51.046;13.780;2022-08-21T01:06:30;23.10;96.80
63277;DHT22;49403;51.046;13.780;2022-08-21T01:07:02;23.20;96.90
63277;DHT22;49403;51.046;13.780;2022-08-21T01:07:33;23.60;97.00
63277;DHT22;49403;51.046;13.780;2022-08-21T01:08:06;23.20;96.90
63277;DHT22;49403;51.046;13.780;2022-08-21T01:08:37;23.20;96.80
63277;DHT22;49403;51.046;13.780;2022-08-21T01:09:09;23.20;96.90
63277;DHT22;49403;51.046;13.780;2022-08-21T01:09:40;23.20;96.90
63277;DHT22;49403;51.046;13.780;2022-08-21T01:10:12;23.20;97.00
63277;DHT22;49403;51.046;13.780;2022-08-21T01:10:43;23.20;97.10
63277;DHT22;49403;51.046;13.780;2022-08-21T01:11:17;23.20;97.00
63277;DHT22;49403;51.046;13.780;2022-08-21T01:11:49;23.20;97.00
63277;DHT22;49403;51.046;13.780;2022-08-21T01:12:20;23.80;97.20
63277;DHT22;49403;51.046;13.780;2022-08-21T01:12:52;23.20;96.90
63277;DHT22;49403;51.046;13.780;2022-08-21T01:13:26;23.00;96.80
63277;DHT22;49403;51.046;13.780;2022-08-21T01:13:57;23.20;96.80
63277;DHT22;49403;51.046;13.780;2022-08-21T01:14:29;24.20;97.30
63277;DHT22;49403;51.046;13.780;2022-08-21T01:15:02;23.20;96.80
63277;DHT22;49403;51.046;13.780;2022-08-21T01:15:37;23.20;96.70
63277;DHT22;49403;51.046;13.780;2022-08-21T01:16:10;23.20;96.60
63277;DHT22;49403;51.046;13.780;2022-08-21T01:16:43;23.20;96.60
63277;DHT22;49403;51.046;13.780;2022-08-21T01:17:15;23.20;96.60
63277;DHT22;49403;51.046;13.780;2022-08-21T01:17:48;23.20;96.60
63277;DHT22;49403;51.046;13.780;2022-08-21T01:18:20;23.20;96.50
63277;DHT22;49403;51.046;13.780;2022-08-21T01:18:51;23.10;96.40
63277;DHT22;49403;51.046;13.780;2022-08-21T01:19:23;22.20;96.00
63277;DHT22;49403;51.046;13.780;2022-08-21T01:19:58;24.50;97.00
63277;DHT22;49403;51.046;13.780;2022-08-21T01:20:29;23.10;96.30
63277;DHT22;49403;51.046;13.780;2022-08-21T01:21:02;23.10;96.40
63277;DHT22;49403;51.046;13.780;2022-08-21T01:21:33;23.20;96.40
63277;DHT22;49403;51.046;13.780;2022-08-21T01:22:04;23.20;96.50
63277;DHT22;49403;51.046;13.780;2022-08-21T01:22:35;23.20;96.40
63277;DHT22;49403;51.046;13.780;2022-08-21T01:23:06;23.10;96.30
63277;DHT22;49403;51.046;13.780;2022-08-21T01:23:40;23.10;96.30
63277;DHT22;49403;51.046;13.780;2022-08-21T01:24:11;23.10;96.20
63277;DHT22;49403;51.046;13.780;2022-08-21T01:24:42;23.10;96.10
63277;DHT22;49403;51.046;13.780;2022-08-21T01:25:15;23.40;96.40
63277;DHT22;49403;51.046;13.780;2022-08-21T01:25:46;23.70;96.50
63277;DHT22;49403;51.046;13.780;2022-08-21T01:26:21;23.10;96.30
63277;DHT22;49403;51.046;13.780;2022-08-21T01:26:53;23.80;96.60
63277;DHT22;49403;51.046;13.780;2022-08-21T01:27:24;23.00;96.30
63277;DHT22;49403;51.046;13.780;2022-08-21T01:27:55;24.00;96.90
63277;DHT22;49403;51.046;13.780;2022-08-21T01:28:28;23.60;96.60
63277;DHT22;49403;51.046;13.780;2022-08-21T01:29:30;24.20;96.90
63277;DHT22;49403;51.046;13.780;2022-08-21T01:30:22;23.00;96.20
63277;DHT22;49403;51.046;13.780;2022-08-21T01:30:53;22.90;96.30
63277;DHT22;49403;51.046;13.780;2022-08-21T01:31:27;22.80;96.50
63277;DHT22;49403;51.046;13.780;2022-08-21T01:32:02;23.00;96.70
63277;DHT22;49403;51.046;13.780;2022-08-21T01:32:33;22.80;96.70
63277;DHT22;49403;51.046;13.780;2022-08-21T01:33:04;22.80;96.70
63277;DHT22;49403;51.046;13.780;2022-08-21T01:33:36;22.80;96.80
63277;DHT22;49403;51.046;13.780;2022-08-21T01:34:10;22.90;96.70
63277;DHT22;49403;51.046;13.780;2022-08-21T01:34:43;22.80;96.50
63277;DHT22;49403;51.046;13.780;2022-08-21T01:35:16;22.80;96.40
63277;DHT22;49403;51.046;13.780;2022-08-21T01:35:47;22.70;96.40
63277;DHT22;49403;51.046;13.780;2022-08-21T01:36:18;22.70;96.50
63277;DHT22;49403;51.046;13.780;2022-08-21T01:36:49;22.70;96.60
63277;DHT22;49403;51.046;13.780;2022-08-21T01:37:21;23.50;96.90
63277;DHT22;49403;51.046;13.780;2022-08-21T01:37:52;24.00;97.00
63277;DHT22;49403;51.046;13.780;2022-08-21T01:38:24;22.70;96.50
63277;DHT22;49403;51.046;13.780;2022-08-21T01:38:55;22.70;96.60
63277;DHT22;49403;51.046;13.780;2022-08-21T01:39:26;22.70;96.50
63277;DHT22;49403;51.046;13.780;2022-08-21T01:39:57;24.00;97.20
63277;DHT22;49403;51.046;13.780;2022-08-21T01:40:28;22.60;96.60
63277;DHT22;49403;51.046;13.780;2022-08-21T01:40:59;22.60;96.60
63277;DHT22;49403;51.046;13.780;2022-08-21T01:41:30;22.60;96.70
63277;DHT22;49403;51.046;13.780;2022-08-21T01:42:01;22.60;96.90
63277;DHT22;49403;51.046;13.780;2022-08-21T01:42:32;22.00;96.60
63277;DHT22;49403;51.046;13.780;2022-08-21T01:43:03;22.60;96.90
63277;DHT22;49403;51.046;13.780;2022-08-21T01:43:34;22.70;97.00
63277;DHT22;49403;51.046;13.780;2022-08-21T01:44:05;22.70;97.00
63277;DHT22;49403;51.046;13.780;2022-08-21T01:44:36;22.60;96.80
63277;DHT22;49403;51.046;13.780;2022-08-21T01:45:08;24.00;97.40
63277;DHT22;49403;51.046;13.780;2022-08-21T01:45:39;22.70;96.60
63277;DHT22;49403;51.046;13.780;2022-08-21T01:46:10;22.70;96.70
63277;DHT22;49403;51.046;13.780;2022-08-21T01:46:42;22.60;96.60
63277;DHT22;49403;51.046;13.780;2022-08-21T01:47:14;22.60;96.80
63277;DHT22;49403;51.046;13.780;2022-08-21T01:47:46;22.70;96.80
63277;DHT22;49403;51.046;13.780;2022-08-21T01:48:17;22.60;96.90
63277;DHT22;49403;51.046;13.780;2022-08-21T01:48:48;22.70;97.10
63277;DHT22;49403;51.046;13.780;2022-08-21T01:49:20;22.70;97.10
63277;DHT22;49403;51.046;13.780;2022-08-21T01:49:51;22.70;97.00
63277;DHT22;49403;51.046;13.780;2022-08-21T01:50:22;22.70;97.00
63277;DHT22;49403;51.046;13.780;2022-08-21T01:50:53;22.80;97.10
63277;DHT22;49403;51.046;13.780;2022-08-21T01:51:24;22.70;97.00
63277;DHT22;49403;51.046;13.780;2022-08-21T01:51:55;22.70;97.10
63277;DHT22;49403;51.046;13.780;2022-08-21T01:52:26;22.70;97.00
63277;DHT22;49403;51.046;13.780;2022-08-21T01:52:57;22.70;96.90
63277;DHT22;49403;51.046;13.780;2022-08-21T01:53:28;22.70;97.00
63277;DHT22;49403;51.046;13.780;2022-08-21T01:53:59;22.80;97.30
63277;DHT22;49403;51.046;13.780;2022-08-21T01:54:30;22.80;96.90
63277;DHT22;49403;51.046;13.780;2022-08-21T01:55:01;22.80;96.80
63277;DHT22;49403;51.046;13.780;2022-08-21T01:55:32;22.80;96.90
63277;DHT22;49403;51.046;13.780;2022-08-21T01:56:06;22.70;96.80
63277;DHT22;49403;51.046;13.780;2022-08-21T01:56:40;22.80;96.80
63277;DHT22;49403;51.046;13.780;2022-08-21T01:57:12;22.70;96.70
63277;DHT22;49403;51.046;13.780;2022-08-21T01:57:44;22.40;96.50
63277;DHT22;49403;51.046;13.780;2022-08-21T01:58:15;22.70;96.70
63277;DHT22;49403;51.046;13.780;2022-08-21T01:58:47;22.80;96.80
63277;DHT22;49403;51.046;13.780;2022-08-21T01:59:18;22.70;96.60
63277;DHT22;49403;51.046;13.780;2022-08-21T01:59:49;22.80;96.60
63277;DHT22;49403;51.046;13.780;2022-08-21T02:00:22;22.70;96.60
63277;DHT22;49403;51.046;13.780;2022-08-21T02:00:53;22.80;96.60
63277;DHT22;49403;51.046;13.780;2022-08-21T02:01:24;22.80;96.60
63277;DHT22;49403;51.046;13.780;2022-08-21T02:01:55;22.80;96.60
63277;DHT22;49403;51.046;13.780;2022-08-21T02:02:26;24.00;97.40
63277;DHT22;49403;51.046;13.780;2022-08-21T02:02:57;22.80;96.60
63277;DHT22;49403;51.046;13.780;2022-08-21T02:03:28;22.70;96.60
63277;DHT22;49403;51.046;13.780;2022-08-21T02:03:59;22.80;96.60
63277;DHT22;49403;51.046;13.780;2022-08-21T02:04:31;23.90;97.10
63277;DHT22;49403;51.046;13.780;2022-08-21T02:05:03;22.70;96.50
63277;DHT22;49403;51.046;13.780;2022-08-21T02:05:34;22.70;96.50
63277;DHT22;49403;51.046;13.780;2022-08-21T02:06:06;22.80;96.60
63277;DHT22;49403;51.046;13.780;2022-08-21T02:06:38;22.80;96.50
63277;DHT22;49403;51.046;13.780;2022-08-21T02:07:09;22.80;96.50
63277;DHT22;49403;51.046;13.780;2022-08-21T02:07:46;22.60;96.50
63277;DHT22;49403;51.046;13.780;2022-08-21T02:08:17;22.70;96.50
63277;DHT22;49403;51.046;13.780;2022-08-21T02:08:48;22.70;96.50
63277;DHT22;49403;51.046;13.780;2022-08-21T02:09:20;24.00;97.10
63277;DHT22;49403;51.046;13.780;2022-08-21T02:09:52;21.70;96.10
63277;DHT22;49403;51.046;13.780;2022-08-21T02:10:26;22.70;96.40
63277;DHT22;49403;51.046;13.780;2022-08-21T02:10:57;22.70;96.30
63277;DHT22;49403;51.046;13.780;2022-08-21T02:11:30;22.60;96.20
63277;DHT22;49403;51.046;13.780;2022-08-21T02:12:01;22.70;96.20
63277;DHT22;49403;51.046;13.780;2022-08-21T02:12:32;22.70;96.20
63277;DHT22;49403;51.046;13.780;2022-08-21T02:13:03;22.60;96.30
63277;DHT22;49403;51.046;13.780;2022-08-21T02:13:34;22.60;96.50
63277;DHT22;49403;51.046;13.780;2022-08-21T02:14:09;22.60;96.20
63277;DHT22;49403;51.046;13.780;2022-08-21T02:14:42;22.60;96.10
63277;DHT22;49403;51.046;13.780;2022-08-21T02:15:13;22.50;96.20
63277;DHT22;49403;51.046;13.780;2022-08-21T02:15:44;22.50;96.20
63277;DHT22;49403;51.046;13.780;2022-08-21T02:16:16;22.60;96.30
63277;DHT22;49403;51.046;13.780;2022-08-21T02:16:47;23.50;96.60
63277;DHT22;49403;51.046;13.780;2022-08-21T02:17:18;22.60;96.30
63277;DHT22;49403;51.046;13.780;2022-08-21T02:17:52;21.20;95.70
63277;DHT22;49403;51.046;13.780;2022-08-21T02:18:23;22.50;96.20
63277;DHT22;49403;51.046;13.780;2022-08-21T02:18:54;22.50;96.30
63277;DHT22;49403;51.046;13.780;2022-08-21T02:19:25;22.70;96.50
63277;DHT22;49403;51.046;13.780;2022-08-21T02:19:55;22.10;96.20
63277;DHT22;49403;51.046;13.780;2022-08-21T02:20:31;22.50;96.30
63277;DHT22;49403;51.046;13.780;2022-08-21T02:21:03;22.60;96.20
63277;DHT22;49403;51.046;13.780;2022-08-21T02:21:35;22.60;96.20
63277;DHT22;49403;51.046;13.780;2022-08-21T02:22:07;23.40;96.70
63277;DHT22;49403;51.046;13.780;2022-08-21T02:22:38;24.00;96.90
63277;DHT22;49403;51.046;13.780;2022-08-21T02:23:10;22.50;96.40
63277;DHT22;49403;51.046;13.780;2022-08-21T02:23:41;22.50;96.40
63277;DHT22;49403;51.046;13.780;2022-08-21T02:24:12;23.90;97.10
63277;DHT22;49403;51.046;13.780;2022-08-21T02:24:43;22.60;96.60
63277;DHT22;49403;51.046;13.780;2022-08-21T02:25:16;22.60;96.50
63277;DHT22;49403;51.046;13.780;2022-08-21T02:25:47;22.60;96.50
63277;DHT22;49403;51.046;13.780;2022-08-21T02:26:18;22.60;96.60
63277;DHT22;49403;51.046;13.780;2022-08-21T02:26:49;22.70;96.60
63277;DHT22;49403;51.046;13.780;2022-08-21T02:27:20;21.80;96.20
63277;DHT22;49403;51.046;13.780;2022-08-21T02:27:52;22.70;96.80
63277;DHT22;49403;51.046;13.780;2022-08-21T02:28:23;22.70;96.50
63277;DHT22;49403;51.046;13.780;2022-08-21T02:28:54;22.70;96.50
63277;DHT22;49403;51.046;13.780;2022-08-21T02:29:25;22.70;96.50
63277;DHT22;49403;51.046;13.780;2022-08-21T02:29:57;22.70;96.40
63277;DHT22;49403;51.046;13.780;2022-08-21T02:30:31;23.90;96.80
63277;DHT22;49403;51.046;13.780;2022-08-21T02:31:03;22.70;96.20
63277;DHT22;49403;51.046;13.780;2022-08-21T02:31:34;22.70;96.20
63277;DHT22;49403;51.046;13.780;2022-08-21T02:32:05;22.70;96.30
63277;DHT22;49403;51.046;13.780;2022-08-21T02:32:35;22.70;96.30
63277;DHT22;49403;51.046;13.780;2022-08-21T02:33:08;22.70;96.20
63277;DHT22;49403;51.046;13.780;2022-08-21T02:33:40;22.70;96.10
63277;DHT22;49403;51.046;13.780;2022-08-21T02:34:11;22.70;96.10
63277;DHT22;49403;51.046;13.780;2022-08-21T02:34:42;22.70;96.10
63277;DHT22;49403;51.046;13.780;2022-08-21T02:35:13;22.70;96.00
63277;DHT22;49403;51.046;13.780;2022-08-21T02:35:46;24.00;96.50
63277;DHT22;49403;51.046;13.780;2022-08-21T02:36:17;22.70;95.80
63277;DHT22;49403;51.046;13.780;2022-08-21T02:36:48;22.70;95.90
63277;DHT22;49403;51.046;13.780;2022-08-21T02:37:19;22.80;95.90
63277;DHT22;49403;51.046;13.780;2022-08-21T02:37:57;22.70;95.70
63277;DHT22;49403;51.046;13.780;2022-08-21T02:38:31;22.70;95.60
63277;DHT22;49403;51.046;13.780;2022-08-21T02:39:03;22.70;95.50
63277;DHT22;49403;51.046;13.780;2022-08-21T02:39:34;22.70;95.60
63277;DHT22;49403;51.046;13.780;2022-08-21T02:40:05;22.70;95.60
63277;DHT22;49403;51.046;13.780;2022-08-21T02:40:38;22.70;95.50
63277;DHT22;49403;51.046;13.780;2022-08-21T02:41:14;22.70;95.50
63277;DHT22;49403;51.046;13.780;2022-08-21T02:41:45;22.70;95.40
63277;DHT22;49403;51.046;13.780;2022-08-21T02:42:17;22.70;95.30
63277;DHT22;49403;51.046;13.780;2022-08-21T02:42:48;22.70;95.20
63277;DHT22;49403;51.046;13.780;2022-08-21T02:43:21;22.70;95.20
63277;DHT22;49403;51.046;13.780;2022-08-21T02:43:52;23.60;95.60
63277;DHT22;49403;51.046;13.780;2022-08-21T02:44:22;22.60;95.20
63277;DHT22;49403;51.046;13.780;2022-08-21T02:44:53;22.60;95.10
63277;DHT22;49403;51.046;13.780;2022-08-21T02:45:24;22.60;95.10
63277;DHT22;49403;51.046;13.780;2022-08-21T02:45:56;22.70;95.10
63277;DHT22;49403;51.046;13.780;2022-08-21T02:46:27;22.60;95.00
63277;DHT22;49403;51.046;13.780;2022-08-21T02:46:58;23.40;95.40
63277;DHT22;49403;51.046;13.780;2022-08-21T02:47:29;22.60;95.00
63277;DHT22;49403;51.046;13.780;2022-08-21T02:48:04;22.60;95.00
63277;DHT22;49403;51.046;13.780;2022-08-21T02:48:35;22.60;94.90
63277;DHT22;49403;51.046;13.780;2022-08-21T02:49:07;22.60;94.90
63277;DHT22;49403;51.046;13.780;2022-08-21T02:49:38;22.60;95.00
63277;DHT22;49403;51.046;13.780;2022-08-21T02:50:08;22.60;95.00
63277;DHT22;49403;51.046;13.780;2022-08-21T02:50:45;22.60;95.00
63277;DHT22;49403;51.046;13.780;2022-08-21T02:51:18;22.40;94.80
63277;DHT22;49403;51.046;13.780;2022-08-21T02:51:50;23.20;95.20
63277;DHT22;49403;51.046;13.780;2022-08-21T02:52:21;22.60;95.00
63277;DHT22;49403;51.046;13.780;2022-08-21T02:52:52;24.00;95.60
63277;DHT22;49403;51.046;13.780;2022-08-21T02:53:24;24.10;95.70
63277;DHT22;49403;51.046;13.780;2022-08-21T02:53:55;22.60;95.00
63277;DHT22;49403;51.046;13.780;2022-08-21T02:54:26;22.60;95.10
63277;DHT22;49403;51.046;13.780;2022-08-21T02:54:57;22.50;95.00
63277;DHT22;49403;51.046;13.780;2022-08-21T02:55:29;22.60;95.10
63277;DHT22;49403;51.046;13.780;2022-08-21T02:56:03;22.70;95.00
63277;DHT22;49403;51.046;13.780;2022-08-21T02:56:34;22.90;95.10
63277;DHT22;49403;51.046;13.780;2022-08-21T02:57:05;22.60;95.00
63277;DHT22;49403;51.046;13.780;2022-08-21T02:57:36;22.60;95.00
63277;DHT22;49403;51.046;13.780;2022-08-21T02:58:07;22.60;95.00
63277;DHT22;49403;51.046;13.780;2022-08-21T02:58:47;22.70;95.00
63277;DHT22;49403;51.046;13.780;2022-08-21T02:59:18;22.50;94.70
63277;DHT22;49403;51.046;13.780;2022-08-21T02:59:49;23.40;95.30
63277;DHT22;49403;51.046;13.780;2022-08-21T03:00:22;22.60;95.10
63277;DHT22;49403;51.046;13.780;2022-08-21T03:00:53;23.00;95.20
63277;DHT22;49403;51.046;13.780;2022-08-21T03:01:24;22.60;95.10
63277;DHT22;49403;51.046;13.780;2022-08-21T03:01:55;22.60;95.00
63277;DHT22;49403;51.046;13.780;2022-08-21T03:02:26;22.60;95.00
63277;DHT22;49403;51.046;13.780;2022-08-21T03:02:57;22.60;95.00
63277;DHT22;49403;51.046;13.780;2022-08-21T03:03:29;22.60;94.90
63277;DHT22;49403;51.046;13.780;2022-08-21T03:03:59;22.60;95.00
63277;DHT22;49403;51.046;13.780;2022-08-21T03:04:30;22.30;95.00
63277;DHT22;49403;51.046;13.780;2022-08-21T03:05:03;23.50;95.60
63277;DHT22;49403;51.046;13.780;2022-08-21T03:05:36;22.60;95.10
63277;DHT22;49403;51.046;13.780;2022-08-21T03:06:10;22.50;95.10
63277;DHT22;49403;51.046;13.780;2022-08-21T03:06:41;22.60;95.20
63277;DHT22;49403;51.046;13.780;2022-08-21T03:07:12;22.60;95.30
63277;DHT22;49403;51.046;13.780;2022-08-21T03:07:44;22.60;95.30
63277;DHT22;49403;51.046;13.780;2022-08-21T03:08:17;22.50;95.20
63277;DHT22;49403;51.046;13.780;2022-08-21T03:08:49;23.60;95.80
63277;DHT22;49403;51.046;13.780;2022-08-21T03:09:19;23.60;96.00
63277;DHT22;49403;51.046;13.780;2022-08-21T03:09:50;23.20;95.80
63277;DHT22;49403;51.046;13.780;2022-08-21T03:10:22;23.90;96.10
63277;DHT22;49403;51.046;13.780;2022-08-21T03:10:53;23.90;96.10
63277;DHT22;49403;51.046;13.780;2022-08-21T03:11:24;22.60;95.30
63277;DHT22;49403;51.046;13.780;2022-08-21T03:11:56;22.60;95.30
63277;DHT22;49403;51.046;13.780;2022-08-21T03:12:28;21.80;95.00
63277;DHT22;49403;51.046;13.780;2022-08-21T03:12:58;22.60;95.50
63277;DHT22;49403;51.046;13.780;2022-08-21T03:13:30;22.60;95.40
63277;DHT22;49403;51.046;13.780;2022-08-21T03:14:01;22.60;95.30
63277;DHT22;49403;51.046;13.780;2022-08-21T03:14:31;21.50;94.80
63277;DHT22;49403;51.046;13.780;2022-08-21T03:15:04;22.60;95.20
63277;DHT22;49403;51.046;13.780;2022-08-21T03:15:37;22.60;95.10
63277;DHT22;49403;51.046;13.780;2022-08-21T03:16:08;22.50;95.00
63277;DHT22;49403;51.046;13.780;2022-08-21T03:16:39;22.50;95.10
63277;DHT22;49403;51.046;13.780;2022-08-21T03:17:10;22.50;95.10
63277;DHT22;49403;51.046;13.780;2022-08-21T03:17:41;22.50;95.10
63277;DHT22;49403;51.046;13.780;2022-08-21T03:18:12;22.60;95.10
63277;DHT22;49403;51.046;13.780;2022-08-21T03:18:43;22.60;95.10